sensor_id;sensor_type;location;lat;lon;timestamp;P1;durP1;ratioP1;P2;durP2;ratioP2
37805;SDS011;25082;50.870;0.022;2023-12-28T00:00:27;11.40;;;3.30;;
37805;SDS011;25082;50.870;0.022;2023-12-28T00:02:53;13.75;;;4.05;;
37805;SDS011;25082;50.870;0.022;2023-12-28T00:05:19;10.35;;;3.33;;
37805;SDS011;25082;50.870;0.022;2023-12-28T00:07:45;13.10;;;4.00;;
37805;SDS011;25082;50.870;0.022;2023-12-28T00:10:10;17.60;;;4.45;;
37805;SDS011;25082;50.870;0.022;2023-12-28T00:12:36;14.30;;;4.00;;
37805;SDS011;25082;50.870;0.022;2023-12-28T00:15:02;12.82;;;3.70;;
37805;SDS011;25082;50.870;0.022;2023-12-28T00:17:28;12.38;;;3.58;;
37805;SDS011;25082;50.870;0.022;2023-12-28T00:19:54;14.73;;;4.15;;
37805;SDS011;25082;50.870;0.022;2023-12-28T00:22:19;14.40;;;4.20;;
37805;SDS011;25082;50.870;0.022;2023-12-28T00:24:45;17.35;;;4.40;;
37805;SDS011;25082;50.870;0.022;2023-12-28T00:27:11;15.23;;;4.20;;
37805;SDS011;25082;50.870;0.022;2023-12-28T00:29:37;12.65;;;4.03;;
37805;SDS011;25082;50.870;0.022;2023-12-28T00:32:06;14.73;;;3.95;;
37805;SDS011;25082;50.870;0.022;2023-12-28T00:34:32;13.18;;;4.93;;
37805;SDS011;25082;50.870;0.022;2023-12-28T00:36:58;16.73;;;4.72;;
37805;SDS011;25082;50.870;0.022;2023-12-28T00:39:24;13.02;;;4.13;;
37805;SDS011;25082;50.870;0.022;2023-12-28T00:41:49;20.20;;;5.30;;
37805;SDS011;25082;50.870;0.022;2023-12-28T00:44:15;16.65;;;5.47;;
37805;SDS011;25082;50.870;0.022;2023-12-28T00:46:41;16.45;;;4.50;;
37805;SDS011;25082;50.870;0.022;2023-12-28T00:49:07;14.55;;;4.38;;
37805;SDS011;25082;50.870;0.022;2023-12-28T00:51:33;17.25;;;4.20;;
37805;SDS011;25082;50.870;0.022;2023-12-28T00:53:59;14.77;;;3.85;;
37805;SDS011;25082;50.870;0.022;2023-12-28T00:56:25;16.13;;;4.03;;
37805;SDS011;25082;50.870;0.022;2023-12-28T00:58:51;18.35;;;4.85;;
37805;SDS011;25082;50.870;0.022;2023-12-28T01:01:16;15.23;;;4.32;;
37805;SDS011;25082;50.870;0.022;2023-12-28T01:03:42;16.08;;;4.18;;
37805;SDS011;25082;50.870;0.022;2023-12-28T01:06:08;17.70;;;3.88;;
37805;SDS011;25082;50.870;0.022;2023-12-28T01:08:34;18.70;;;5.22;;
37805;SDS011;25082;50.870;0.022;2023-12-28T01:11:00;18.23;;;5.13;;
37805;SDS011;25082;50.870;0.022;2023-12-28T01:13:27;15.10;;;5.05;;
37805;SDS011;25082;50.870;0.022;2023-12-28T01:15:53;16.45;;;5.40;;
37805;SDS011;25082;50.870;0.022;2023-12-28T01:18:19;14.43;;;4.43;;
37805;SDS011;25082;50.870;0.022;2023-12-28T01:20:45;17.38;;;4.00;;
37805;SDS011;25082;50.870;0.022;2023-12-28T01:23:11;15.60;;;4.78;;
37805;SDS011;25082;50.870;0.022;2023-12-28T01:25:37;14.23;;;4.18;;
37805;SDS011;25082;50.870;0.022;2023-12-28T01:28:03;14.45;;;4.68;;
37805;SDS011;25082;50.870;0.022;2023-12-28T01:30:29;12.40;;;4.10;;
37805;SDS011;25082;50.870;0.022;2023-12-28T01:32:55;16.23;;;4.75;;
37805;SDS011;25082;50.870;0.022;2023-12-28T01:35:21;18.45;;;4.78;;
37805;SDS011;25082;50.870;0.022;2023-12-28T01:37:47;22.83;;;6.30;;
37805;SDS011;25082;50.870;0.022;2023-12-28T01:40:14;19.23;;;5.53;;
37805;SDS011;25082;50.870;0.022;2023-12-28T01:42:40;19.13;;;6.05;;
37805;SDS011;25082;50.870;0.022;2023-12-28T01:45:06;16.10;;;4.22;;
37805;SDS011;25082;50.870;0.022;2023-12-28T01:47:33;14.98;;;4.95;;
37805;SDS011;25082;50.870;0.022;2023-12-28T01:49:59;18.77;;;4.85;;
37805;SDS011;25082;50.870;0.022;2023-12-28T01:52:25;16.30;;;5.00;;
37805;SDS011;25082;50.870;0.022;2023-12-28T01:54:53;16.70;;;4.32;;
37805;SDS011;25082;50.870;0.022;2023-12-28T01:57:19;16.17;;;4.68;;
37805;SDS011;25082;50.870;0.022;2023-12-28T01:59:46;21.33;;;5.03;;
37805;SDS011;25082;50.870;0.022;2023-12-28T02:02:12;18.75;;;5.05;;
37805;SDS011;25082;50.870;0.022;2023-12-28T02:04:39;18.15;;;4.57;;
37805;SDS011;25082;50.870;0.022;2023-12-28T02:07:05;15.23;;;5.22;;
37805;SDS011;25082;50.870;0.022;2023-12-28T02:09:31;18.77;;;5.18;;
37805;SDS011;25082;50.870;0.022;2023-12-28T02:11:57;18.55;;;4.95;;
37805;SDS011;25082;50.870;0.022;2023-12-28T02:14:23;19.38;;;5.30;;
37805;SDS011;25082;50.870;0.022;2023-12-28T02:16:54;17.23;;;4.53;;
37805;SDS011;25082;50.870;0.022;2023-12-28T02:19:39;15.40;;;4.65;;
37805;SDS011;25082;50.870;0.022;2023-12-28T02:22:13;16.05;;;4.93;;
37805;SDS011;25082;50.870;0.022;2023-12-28T02:27:39;21.90;;;6.28;;
37805;SDS011;25082;50.870;0.022;2023-12-28T02:30:24;19.52;;;5.47;;
37805;SDS011;25082;50.870;0.022;2023-12-28T02:33:01;19.52;;;5.72;;
37805;SDS011;25082;50.870;0.022;2023-12-28T02:35:37;19.35;;;5.47;;
37805;SDS011;25082;50.870;0.022;2023-12-28T02:38:11;15.95;;;5.45;;
37805;SDS011;25082;50.870;0.022;2023-12-28T02:40:40;22.27;;;5.40;;
37805;SDS011;25082;50.870;0.022;2023-12-28T02:43:10;15.60;;;5.25;;
37805;SDS011;25082;50.870;0.022;2023-12-28T02:45:37;19.50;;;5.90;;
37805;SDS011;25082;50.870;0.022;2023-12-28T02:48:04;19.20;;;4.88;;
37805;SDS011;25082;50.870;0.022;2023-12-28T02:50:31;18.42;;;5.35;;
37805;SDS011;25082;50.870;0.022;2023-12-28T02:52:57;18.83;;;5.28;;
37805;SDS011;25082;50.870;0.022;2023-12-28T02:55:23;17.83;;;6.18;;
37805;SDS011;25082;50.870;0.022;2023-12-28T02:57:49;17.67;;;5.07;;
37805;SDS011;25082;50.870;0.022;2023-12-28T03:00:16;20.00;;;5.43;;
37805;SDS011;25082;50.870;0.022;2023-12-28T03:02:42;21.35;;;6.20;;
37805;SDS011;25082;50.870;0.022;2023-12-28T03:05:08;19.70;;;6.00;;
37805;SDS011;25082;50.870;0.022;2023-12-28T03:07:34;20.67;;;7.00;;
37805;SDS011;25082;50.870;0.022;2023-12-28T03:10:00;18.50;;;5.10;;
37805;SDS011;25082;50.870;0.022;2023-12-28T03:12:28;18.58;;;4.85;;
37805;SDS011;25082;50.870;0.022;2023-12-28T03:14:54;19.10;;;5.50;;
37805;SDS011;25082;50.870;0.022;2023-12-28T03:17:20;21.17;;;5.55;;
37805;SDS011;25082;50.870;0.022;2023-12-28T03:19:46;22.23;;;5.97;;
37805;SDS011;25082;50.870;0.022;2023-12-28T03:22:12;17.48;;;5.68;;
37805;SDS011;25082;50.870;0.022;2023-12-28T03:24:38;16.20;;;5.28;;
37805;SDS011;25082;50.870;0.022;2023-12-28T03:27:04;22.00;;;6.13;;
37805;SDS011;25082;50.870;0.022;2023-12-28T03:29:30;18.50;;;4.70;;
37805;SDS011;25082;50.870;0.022;2023-12-28T03:31:56;18.25;;;4.82;;
37805;SDS011;25082;50.870;0.022;2023-12-28T03:34:22;18.48;;;5.15;;
37805;SDS011;25082;50.870;0.022;2023-12-28T03:36:49;17.00;;;5.45;;
37805;SDS011;25082;50.870;0.022;2023-12-28T03:39:15;21.58;;;5.50;;
37805;SDS011;25082;50.870;0.022;2023-12-28T03:41:41;14.75;;;5.25;;
37805;SDS011;25082;50.870;0.022;2023-12-28T03:44:06;23.90;;;5.88;;
37805;SDS011;25082;50.870;0.022;2023-12-28T03:46:32;20.23;;;5.75;;
37805;SDS011;25082;50.870;0.022;2023-12-28T03:48:58;14.93;;;4.82;;
37805;SDS011;25082;50.870;0.022;2023-12-28T03:51:24;23.80;;;6.45;;
37805;SDS011;25082;50.870;0.022;2023-12-28T03:53:49;19.80;;;5.75;;
37805;SDS011;25082;50.870;0.022;2023-12-28T03:56:19;17.00;;;4.63;;
37805;SDS011;25082;50.870;0.022;2023-12-28T03:58:48;19.73;;;5.85;;
37805;SDS011;25082;50.870;0.022;2023-12-28T04:01:15;17.67;;;5.25;;
37805;SDS011;25082;50.870;0.022;2023-12-28T04:03:42;19.88;;;5.80;;
37805;SDS011;25082;50.870;0.022;2023-12-28T04:06:09;19.98;;;5.80;;
37805;SDS011;25082;50.870;0.022;2023-12-28T04:08:34;23.67;;;6.03;;
37805;SDS011;25082;50.870;0.022;2023-12-28T04:11:00;20.40;;;5.22;;
37805;SDS011;25082;50.870;0.022;2023-12-28T04:13:26;22.33;;;5.47;;
37805;SDS011;25082;50.870;0.022;2023-12-28T04:15:51;18.90;;;5.47;;
37805;SDS011;25082;50.870;0.022;2023-12-28T04:18:17;19.40;;;5.47;;
37805;SDS011;25082;50.870;0.022;2023-12-28T04:20:43;22.08;;;5.53;;
37805;SDS011;25082;50.870;0.022;2023-12-28T04:23:11;20.30;;;5.90;;
37805;SDS011;25082;50.870;0.022;2023-12-28T04:25:37;19.15;;;5.18;;
37805;SDS011;25082;50.870;0.022;2023-12-28T04:28:03;22.30;;;5.78;;
37805;SDS011;25082;50.870;0.022;2023-12-28T04:30:29;20.73;;;6.07;;
37805;SDS011;25082;50.870;0.022;2023-12-28T04:32:54;22.80;;;7.07;;
37805;SDS011;25082;50.870;0.022;2023-12-28T04:35:20;22.33;;;5.43;;
37805;SDS011;25082;50.870;0.022;2023-12-28T04:37:46;19.33;;;5.68;;
37805;SDS011;25082;50.870;0.022;2023-12-28T04:40:11;21.08;;;7.00;;
37805;SDS011;25082;50.870;0.022;2023-12-28T04:42:39;22.80;;;6.53;;
37805;SDS011;25082;50.870;0.022;2023-12-28T04:45:06;18.42;;;5.45;;
37805;SDS011;25082;50.870;0.022;2023-12-28T04:47:32;18.38;;;5.78;;
37805;SDS011;25082;50.870;0.022;2023-12-28T04:49:58;20.15;;;6.55;;
37805;SDS011;25082;50.870;0.022;2023-12-28T04:52:23;18.90;;;5.65;;
37805;SDS011;25082;50.870;0.022;2023-12-28T04:54:49;22.25;;;5.45;;
37805;SDS011;25082;50.870;0.022;2023-12-28T04:57:16;22.25;;;6.25;;
37805;SDS011;25082;50.870;0.022;2023-12-28T04:59:41;25.90;;;6.10;;
37805;SDS011;25082;50.870;0.022;2023-12-28T05:02:07;19.10;;;5.57;;
37805;SDS011;25082;50.870;0.022;2023-12-28T05:04:36;19.48;;;5.55;;
37805;SDS011;25082;50.870;0.022;2023-12-28T05:07:03;19.33;;;5.60;;
37805;SDS011;25082;50.870;0.022;2023-12-28T05:09:29;22.85;;;6.22;;
37805;SDS011;25082;50.870;0.022;2023-12-28T05:11:56;23.40;;;5.68;;
37805;SDS011;25082;50.870;0.022;2023-12-28T05:14:22;19.88;;;5.18;;
37805;SDS011;25082;50.870;0.022;2023-12-28T05:16:47;18.35;;;5.57;;
37805;SDS011;25082;50.870;0.022;2023-12-28T05:19:13;22.63;;;5.80;;
37805;SDS011;25082;50.870;0.022;2023-12-28T05:21:39;22.02;;;6.70;;
37805;SDS011;25082;50.870;0.022;2023-12-28T05:24:05;19.90;;;6.30;;
37805;SDS011;25082;50.870;0.022;2023-12-28T05:26:31;23.55;;;5.72;;
37805;SDS011;25082;50.870;0.022;2023-12-28T05:28:57;19.60;;;5.70;;
37805;SDS011;25082;50.870;0.022;2023-12-28T05:31:23;21.55;;;6.22;;
37805;SDS011;25082;50.870;0.022;2023-12-28T05:33:48;16.27;;;5.38;;
37805;SDS011;25082;50.870;0.022;2023-12-28T05:36:14;19.17;;;4.78;;
37805;SDS011;25082;50.870;0.022;2023-12-28T05:38:40;22.52;;;5.60;;
37805;SDS011;25082;50.870;0.022;2023-12-28T05:41:06;16.15;;;5.57;;
37805;SDS011;25082;50.870;0.022;2023-12-28T05:43:31;20.67;;;5.95;;
37805;SDS011;25082;50.870;0.022;2023-12-28T05:45:57;21.23;;;6.05;;
37805;SDS011;25082;50.870;0.022;2023-12-28T05:48:23;19.15;;;5.13;;
37805;SDS011;25082;50.870;0.022;2023-12-28T05:50:48;21.90;;;5.53;;
37805;SDS011;25082;50.870;0.022;2023-12-28T05:53:14;22.25;;;5.60;;
37805;SDS011;25082;50.870;0.022;2023-12-28T05:55:40;21.05;;;6.10;;
37805;SDS011;25082;50.870;0.022;2023-12-28T05:58:06;17.42;;;5.53;;
37805;SDS011;25082;50.870;0.022;2023-12-28T06:00:32;20.75;;;5.20;;
37805;SDS011;25082;50.870;0.022;2023-12-28T06:02:58;27.33;;;7.30;;
37805;SDS011;25082;50.870;0.022;2023-12-28T06:05:23;19.38;;;6.63;;
37805;SDS011;25082;50.870;0.022;2023-12-28T06:07:49;18.83;;;5.10;;
37805;SDS011;25082;50.870;0.022;2023-12-28T06:10:15;21.42;;;6.10;;
37805;SDS011;25082;50.870;0.022;2023-12-28T06:12:41;23.10;;;6.18;;
37805;SDS011;25082;50.870;0.022;2023-12-28T06:15:06;17.27;;;5.30;;
37805;SDS011;25082;50.870;0.022;2023-12-28T06:17:32;19.00;;;5.32;;
37805;SDS011;25082;50.870;0.022;2023-12-28T06:19:58;18.02;;;5.15;;
37805;SDS011;25082;50.870;0.022;2023-12-28T06:22:24;21.80;;;5.45;;
37805;SDS011;25082;50.870;0.022;2023-12-28T06:24:53;22.42;;;5.47;;
37805;SDS011;25082;50.870;0.022;2023-12-28T06:27:22;20.17;;;6.22;;
37805;SDS011;25082;50.870;0.022;2023-12-28T06:29:50;19.73;;;5.82;;
37805;SDS011;25082;50.870;0.022;2023-12-28T06:32:16;17.25;;;5.20;;
37805;SDS011;25082;50.870;0.022;2023-12-28T06:34:42;20.90;;;6.38;;
37805;SDS011;25082;50.870;0.022;2023-12-28T06:37:08;25.63;;;5.95;;
37805;SDS011;25082;50.870;0.022;2023-12-28T06:39:33;18.10;;;5.32;;
37805;SDS011;25082;50.870;0.022;2023-12-28T06:41:59;16.77;;;6.30;;
37805;SDS011;25082;50.870;0.022;2023-12-28T06:44:25;19.67;;;5.45;;
37805;SDS011;25082;50.870;0.022;2023-12-28T06:46:51;12.85;;;4.18;;
37805;SDS011;25082;50.870;0.022;2023-12-28T06:49:16;22.60;;;5.95;;
37805;SDS011;25082;50.870;0.022;2023-12-28T06:51:42;17.83;;;4.70;;
37805;SDS011;25082;50.870;0.022;2023-12-28T06:54:10;18.50;;;5.82;;
37805;SDS011;25082;50.870;0.022;2023-12-28T06:56:36;19.33;;;5.72;;
37805;SDS011;25082;50.870;0.022;2023-12-28T06:59:02;19.08;;;5.90;;
37805;SDS011;25082;50.870;0.022;2023-12-28T07:01:27;19.30;;;6.38;;
37805;SDS011;25082;50.870;0.022;2023-12-28T07:03:53;22.27;;;5.53;;
37805;SDS011;25082;50.870;0.022;2023-12-28T07:06:19;21.95;;;6.68;;
37805;SDS011;25082;50.870;0.022;2023-12-28T07:08:45;18.30;;;5.03;;
37805;SDS011;25082;50.870;0.022;2023-12-28T07:11:11;20.05;;;6.07;;
37805;SDS011;25082;50.870;0.022;2023-12-28T07:13:36;22.80;;;5.72;;
37805;SDS011;25082;50.870;0.022;2023-12-28T07:16:02;20.58;;;5.43;;
37805;SDS011;25082;50.870;0.022;2023-12-28T07:18:29;17.92;;;5.28;;
37805;SDS011;25082;50.870;0.022;2023-12-28T07:20:54;20.30;;;5.50;;
37805;SDS011;25082;50.870;0.022;2023-12-28T07:23:20;16.45;;;5.35;;
37805;SDS011;25082;50.870;0.022;2023-12-28T07:25:46;21.10;;;6.07;;
37805;SDS011;25082;50.870;0.022;2023-12-28T07:28:12;11.85;;;4.57;;
37805;SDS011;25082;50.870;0.022;2023-12-28T07:30:38;17.75;;;4.40;;
37805;SDS011;25082;50.870;0.022;2023-12-28T07:33:04;12.43;;;3.97;;
37805;SDS011;25082;50.870;0.022;2023-12-28T07:35:29;16.63;;;5.13;;
37805;SDS011;25082;50.870;0.022;2023-12-28T07:37:55;15.27;;;4.53;;
37805;SDS011;25082;50.870;0.022;2023-12-28T07:40:21;16.42;;;5.55;;
37805;SDS011;25082;50.870;0.022;2023-12-28T07:42:47;15.35;;;5.30;;
37805;SDS011;25082;50.870;0.022;2023-12-28T07:45:13;15.35;;;4.00;;
37805;SDS011;25082;50.870;0.022;2023-12-28T07:47:38;19.75;;;5.53;;
37805;SDS011;25082;50.870;0.022;2023-12-28T07:50:04;16.55;;;4.50;;
37805;SDS011;25082;50.870;0.022;2023-12-28T07:52:30;16.55;;;5.50;;
37805;SDS011;25082;50.870;0.022;2023-12-28T07:54:56;15.38;;;4.40;;
37805;SDS011;25082;50.870;0.022;2023-12-28T07:57:23;18.55;;;4.38;;
37805;SDS011;25082;50.870;0.022;2023-12-28T07:59:49;15.88;;;4.78;;
37805;SDS011;25082;50.870;0.022;2023-12-28T08:02:15;20.25;;;4.97;;
37805;SDS011;25082;50.870;0.022;2023-12-28T08:04:41;15.93;;;4.40;;
37805;SDS011;25082;50.870;0.022;2023-12-28T08:07:06;17.13;;;5.35;;
37805;SDS011;25082;50.870;0.022;2023-12-28T08:09:33;16.92;;;4.88;;
37805;SDS011;25082;50.870;0.022;2023-12-28T08:12:00;15.82;;;4.85;;
37805;SDS011;25082;50.870;0.022;2023-12-28T08:14:27;15.35;;;4.57;;
37805;SDS011;25082;50.870;0.022;2023-12-28T08:16:53;17.33;;;4.72;;
37805;SDS011;25082;50.870;0.022;2023-12-28T08:19:19;15.50;;;5.43;;
37805;SDS011;25082;50.870;0.022;2023-12-28T08:21:44;14.35;;;4.80;;
37805;SDS011;25082;50.870;0.022;2023-12-28T08:24:10;19.25;;;4.68;;
37805;SDS011;25082;50.870;0.022;2023-12-28T08:26:39;12.88;;;4.00;;
37805;SDS011;25082;50.870;0.022;2023-12-28T08:29:11;12.35;;;4.80;;
37805;SDS011;25082;50.870;0.022;2023-12-28T08:31:58;17.27;;;5.50;;
37805;SDS011;25082;50.870;0.022;2023-12-28T08:35:06;15.02;;;5.20;;
37805;SDS011;25082;50.870;0.022;2023-12-28T08:38:12;15.38;;;4.22;;
37805;SDS011;25082;50.870;0.022;2023-12-28T08:40:38;18.73;;;5.05;;
37805;SDS011;25082;50.870;0.022;2023-12-28T08:43:05;14.10;;;4.45;;
37805;SDS011;25082;50.870;0.022;2023-12-28T08:45:55;15.15;;;4.38;;
37805;SDS011;25082;50.870;0.022;2023-12-28T08:49:06;13.93;;;4.57;;
37805;SDS011;25082;50.870;0.022;2023-12-28T08:52:13;17.80;;;4.50;;
37805;SDS011;25082;50.870;0.022;2023-12-28T08:55:18;14.32;;;4.80;;
37805;SDS011;25082;50.870;0.022;2023-12-28T08:58:16;15.15;;;4.38;;
37805;SDS011;25082;50.870;0.022;2023-12-28T09:01:23;13.40;;;3.97;;
37805;SDS011;25082;50.870;0.022;2023-12-28T09:03:54;17.02;;;5.28;;
37805;SDS011;25082;50.870;0.022;2023-12-28T09:07:00;12.60;;;3.40;;
37805;SDS011;25082;50.870;0.022;2023-12-28T09:10:09;14.40;;;4.63;;
37805;SDS011;25082;50.870;0.022;2023-12-28T09:13:18;16.42;;;4.95;;
37805;SDS011;25082;50.870;0.022;2023-12-28T09:16:26;14.35;;;4.43;;
37805;SDS011;25082;50.870;0.022;2023-12-28T09:18:53;15.15;;;4.22;;
37805;SDS011;25082;50.870;0.022;2023-12-28T09:21:19;14.50;;;5.03;;
37805;SDS011;25082;50.870;0.022;2023-12-28T09:23:46;14.38;;;4.18;;
37805;SDS011;25082;50.870;0.022;2023-12-28T09:26:11;12.20;;;3.90;;
37805;SDS011;25082;50.870;0.022;2023-12-28T09:28:37;13.35;;;4.88;;
37805;SDS011;25082;50.870;0.022;2023-12-28T09:31:03;14.13;;;4.32;;
37805;SDS011;25082;50.870;0.022;2023-12-28T09:33:47;13.95;;;4.03;;
37805;SDS011;25082;50.870;0.022;2023-12-28T09:36:13;15.20;;;4.85;;
37805;SDS011;25082;50.870;0.022;2023-12-28T09:38:40;12.68;;;3.65;;
37805;SDS011;25082;50.870;0.022;2023-12-28T09:41:15;13.70;;;3.92;;
37805;SDS011;25082;50.870;0.022;2023-12-28T09:46:17;12.45;;;3.42;;
37805;SDS011;25082;50.870;0.022;2023-12-28T09:48:43;14.45;;;4.38;;
37805;SDS011;25082;50.870;0.022;2023-12-28T09:51:10;12.40;;;3.70;;
37805;SDS011;25082;50.870;0.022;2023-12-28T09:53:36;17.25;;;4.53;;
37805;SDS011;25082;50.870;0.022;2023-12-28T09:56:03;14.57;;;3.80;;
37805;SDS011;25082;50.870;0.022;2023-12-28T09:58:30;9.70;;;3.42;;
37805;SDS011;25082;50.870;0.022;2023-12-28T10:01:00;12.07;;;4.25;;
37805;SDS011;25082;50.870;0.022;2023-12-28T10:03:27;12.70;;;4.03;;
37805;SDS011;25082;50.870;0.022;2023-12-28T10:05:53;12.40;;;3.30;;
37805;SDS011;25082;50.870;0.022;2023-12-28T10:08:19;13.88;;;4.07;;
37805;SDS011;25082;50.870;0.022;2023-12-28T10:10:44;11.55;;;4.43;;
37805;SDS011;25082;50.870;0.022;2023-12-28T10:13:17;11.30;;;3.38;;
37805;SDS011;25082;50.870;0.022;2023-12-28T10:15:43;13.88;;;3.55;;
37805;SDS011;25082;50.870;0.022;2023-12-28T10:18:09;11.23;;;3.42;;
37805;SDS011;25082;50.870;0.022;2023-12-28T10:20:36;12.18;;;3.45;;
37805;SDS011;25082;50.870;0.022;2023-12-28T10:23:02;16.90;;;4.15;;
37805;SDS011;25082;50.870;0.022;2023-12-28T10:25:30;13.75;;;3.92;;
37805;SDS011;25082;50.870;0.022;2023-12-28T10:27:57;12.57;;;3.70;;
37805;SDS011;25082;50.870;0.022;2023-12-28T10:30:24;17.77;;;3.38;;
37805;SDS011;25082;50.870;0.022;2023-12-28T10:32:50;12.80;;;3.63;;
37805;SDS011;25082;50.870;0.022;2023-12-28T10:35:15;11.63;;;3.50;;
37805;SDS011;25082;50.870;0.022;2023-12-28T10:37:42;10.77;;;3.33;;
37805;SDS011;25082;50.870;0.022;2023-12-28T10:40:10;14.93;;;4.88;;
37805;SDS011;25082;50.870;0.022;2023-12-28T10:42:46;15.85;;;3.83;;
37805;SDS011;25082;50.870;0.022;2023-12-28T10:45:17;13.90;;;3.90;;
37805;SDS011;25082;50.870;0.022;2023-12-28T10:47:48;14.02;;;4.07;;
37805;SDS011;25082;50.870;0.022;2023-12-28T10:50:23;12.07;;;3.28;;
37805;SDS011;25082;50.870;0.022;2023-12-28T10:52:54;14.32;;;4.25;;
37805;SDS011;25082;50.870;0.022;2023-12-28T10:55:46;10.73;;;3.30;;
37805;SDS011;25082;50.870;0.022;2023-12-28T10:58:30;10.18;;;4.10;;
37805;SDS011;25082;50.870;0.022;2023-12-28T11:01:09;12.90;;;3.63;;
37805;SDS011;25082;50.870;0.022;2023-12-28T11:03:42;17.38;;;4.00;;
37805;SDS011;25082;50.870;0.022;2023-12-28T11:06:12;15.90;;;4.70;;
37805;SDS011;25082;50.870;0.022;2023-12-28T11:08:41;17.55;;;4.40;;
37805;SDS011;25082;50.870;0.022;2023-12-28T11:11:11;19.85;;;4.70;;
37805;SDS011;25082;50.870;0.022;2023-12-28T11:13:39;16.75;;;5.05;;
37805;SDS011;25082;50.870;0.022;2023-12-28T11:16:06;14.15;;;3.92;;
37805;SDS011;25082;50.870;0.022;2023-12-28T11:18:32;14.25;;;4.03;;
37805;SDS011;25082;50.870;0.022;2023-12-28T11:20:58;11.77;;;3.90;;
37805;SDS011;25082;50.870;0.022;2023-12-28T11:23:24;13.57;;;4.10;;
37805;SDS011;25082;50.870;0.022;2023-12-28T11:25:50;13.13;;;3.85;;
37805;SDS011;25082;50.870;0.022;2023-12-28T11:28:16;12.40;;;4.00;;
37805;SDS011;25082;50.870;0.022;2023-12-28T11:30:42;16.83;;;4.72;;
37805;SDS011;25082;50.870;0.022;2023-12-28T11:33:09;12.40;;;4.15;;
37805;SDS011;25082;50.870;0.022;2023-12-28T11:35:36;15.55;;;4.20;;
37805;SDS011;25082;50.870;0.022;2023-12-28T11:38:04;11.98;;;3.75;;
37805;SDS011;25082;50.870;0.022;2023-12-28T11:40:46;10.88;;;3.22;;
37805;SDS011;25082;50.870;0.022;2023-12-28T11:43:19;12.98;;;3.83;;
37805;SDS011;25082;50.870;0.022;2023-12-28T11:45:46;14.23;;;3.88;;
37805;SDS011;25082;50.870;0.022;2023-12-28T11:48:26;15.82;;;4.30;;
37805;SDS011;25082;50.870;0.022;2023-12-28T11:50:59;11.95;;;3.65;;
37805;SDS011;25082;50.870;0.022;2023-12-28T11:53:26;16.23;;;4.13;;
37805;SDS011;25082;50.870;0.022;2023-12-28T11:55:52;12.48;;;3.47;;
37805;SDS011;25082;50.870;0.022;2023-12-28T11:58:30;12.63;;;3.78;;
37805;SDS011;25082;50.870;0.022;2023-12-28T12:00:55;17.23;;;4.57;;
37805;SDS011;25082;50.870;0.022;2023-12-28T12:03:24;12.02;;;3.10;;
37805;SDS011;25082;50.870;0.022;2023-12-28T12:05:51;13.95;;;3.72;;
37805;SDS011;25082;50.870;0.022;2023-12-28T12:08:17;10.52;;;3.65;;
37805;SDS011;25082;50.870;0.022;2023-12-28T12:10:43;14.32;;;3.92;;
37805;SDS011;25082;50.870;0.022;2023-12-28T12:13:08;14.07;;;3.40;;
37805;SDS011;25082;50.870;0.022;2023-12-28T12:15:34;16.27;;;4.13;;
37805;SDS011;25082;50.870;0.022;2023-12-28T12:18:01;12.32;;;3.30;;
37805;SDS011;25082;50.870;0.022;2023-12-28T12:20:27;10.68;;;3.33;;
37805;SDS011;25082;50.870;0.022;2023-12-28T12:22:57;11.30;;;3.85;;
37805;SDS011;25082;50.870;0.022;2023-12-28T12:25:24;11.77;;;3.78;;
37805;SDS011;25082;50.870;0.022;2023-12-28T12:27:50;13.98;;;4.55;;
37805;SDS011;25082;50.870;0.022;2023-12-28T12:30:16;14.32;;;4.03;;
37805;SDS011;25082;50.870;0.022;2023-12-28T12:32:41;15.80;;;3.80;;
37805;SDS011;25082;50.870;0.022;2023-12-28T12:35:11;10.55;;;3.78;;
37805;SDS011;25082;50.870;0.022;2023-12-28T12:37:39;11.48;;;3.58;;
37805;SDS011;25082;50.870;0.022;2023-12-28T12:40:06;9.65;;;3.25;;
37805;SDS011;25082;50.870;0.022;2023-12-28T12:42:32;14.27;;;3.92;;
37805;SDS011;25082;50.870;0.022;2023-12-28T12:44:58;10.25;;;3.47;;
37805;SDS011;25082;50.870;0.022;2023-12-28T12:47:25;12.70;;;3.22;;
37805;SDS011;25082;50.870;0.022;2023-12-28T12:49:55;10.65;;;3.80;;
37805;SDS011;25082;50.870;0.022;2023-12-28T12:52:21;12.27;;;4.13;;
37805;SDS011;25082;50.870;0.022;2023-12-28T12:54:55;21.48;;;3.70;;
37805;SDS011;25082;50.870;0.022;2023-12-28T12:57:22;10.90;;;3.90;;
37805;SDS011;25082;50.870;0.022;2023-12-28T12:59:49;13.15;;;4.00;;
37805;SDS011;25082;50.870;0.022;2023-12-28T13:02:15;12.77;;;3.60;;
37805;SDS011;25082;50.870;0.022;2023-12-28T13:04:42;12.52;;;4.13;;
37805;SDS011;25082;50.870;0.022;2023-12-28T13:07:07;13.68;;;4.45;;
37805;SDS011;25082;50.870;0.022;2023-12-28T13:09:34;13.45;;;3.58;;
37805;SDS011;25082;50.870;0.022;2023-12-28T13:12:00;10.02;;;3.15;;
37805;SDS011;25082;50.870;0.022;2023-12-28T13:14:28;15.13;;;3.97;;
37805;SDS011;25082;50.870;0.022;2023-12-28T13:16:55;12.88;;;3.67;;
37805;SDS011;25082;50.870;0.022;2023-12-28T13:19:21;14.88;;;4.45;;
37805;SDS011;25082;50.870;0.022;2023-12-28T13:21:46;15.40;;;4.43;;
37805;SDS011;25082;50.870;0.022;2023-12-28T13:24:12;14.25;;;3.97;;
37805;SDS011;25082;50.870;0.022;2023-12-28T13:26:38;11.45;;;3.53;;
37805;SDS011;25082;50.870;0.022;2023-12-28T13:29:04;10.93;;;3.75;;
37805;SDS011;25082;50.870;0.022;2023-12-28T13:31:29;12.20;;;3.55;;
37805;SDS011;25082;50.870;0.022;2023-12-28T13:33:55;12.15;;;4.13;;
37805;SDS011;25082;50.870;0.022;2023-12-28T13:36:21;11.90;;;3.53;;
37805;SDS011;25082;50.870;0.022;2023-12-28T13:38:47;15.02;;;4.30;;
37805;SDS011;25082;50.870;0.022;2023-12-28T13:41:13;14.90;;;3.90;;
37805;SDS011;25082;50.870;0.022;2023-12-28T13:43:38;11.20;;;3.45;;
37805;SDS011;25082;50.870;0.022;2023-12-28T13:46:04;13.68;;;4.03;;
37805;SDS011;25082;50.870;0.022;2023-12-28T13:48:30;12.77;;;4.20;;
37805;SDS011;25082;50.870;0.022;2023-12-28T13:50:56;11.23;;;3.42;;
37805;SDS011;25082;50.870;0.022;2023-12-28T13:53:22;12.30;;;3.92;;
37805;SDS011;25082;50.870;0.022;2023-12-28T13:55:47;16.48;;;3.72;;
37805;SDS011;25082;50.870;0.022;2023-12-28T13:58:13;15.88;;;4.10;;
37805;SDS011;25082;50.870;0.022;2023-12-28T14:00:39;10.20;;;3.58;;
37805;SDS011;25082;50.870;0.022;2023-12-28T14:03:05;12.98;;;4.00;;
37805;SDS011;25082;50.870;0.022;2023-12-28T14:05:31;12.27;;;3.85;;
37805;SDS011;25082;50.870;0.022;2023-12-28T14:07:57;12.45;;;3.65;;
37805;SDS011;25082;50.870;0.022;2023-12-28T14:10:23;12.90;;;4.07;;
37805;SDS011;25082;50.870;0.022;2023-12-28T14:12:48;13.50;;;3.55;;
37805;SDS011;25082;50.870;0.022;2023-12-28T14:15:15;12.32;;;3.72;;
37805;SDS011;25082;50.870;0.022;2023-12-28T14:18:01;15.10;;;3.53;;
37805;SDS011;25082;50.870;0.022;2023-12-28T14:20:50;14.98;;;4.63;;
37805;SDS011;25082;50.870;0.022;2023-12-28T14:23:16;12.45;;;3.83;;
37805;SDS011;25082;50.870;0.022;2023-12-28T14:26:04;12.88;;;3.95;;
37805;SDS011;25082;50.870;0.022;2023-12-28T14:28:37;12.98;;;3.85;;
37805;SDS011;25082;50.870;0.022;2023-12-28T14:31:03;11.15;;;3.72;;
37805;SDS011;25082;50.870;0.022;2023-12-28T14:33:29;13.93;;;4.28;;
37805;SDS011;25082;50.870;0.022;2023-12-28T14:35:56;15.40;;;3.95;;
37805;SDS011;25082;50.870;0.022;2023-12-28T14:38:22;14.02;;;4.20;;
37805;SDS011;25082;50.870;0.022;2023-12-28T14:40:48;17.17;;;4.50;;
37805;SDS011;25082;50.870;0.022;2023-12-28T14:43:16;15.07;;;3.78;;
37805;SDS011;25082;50.870;0.022;2023-12-28T14:45:42;16.75;;;4.25;;
37805;SDS011;25082;50.870;0.022;2023-12-28T14:48:09;12.73;;;3.75;;